Time;durP1;ratioP1;P1;durP2;ratioP2;P2;SDS_P1;SDS_P2;PMS_P1;PMS_P2;Temp;Humidity;BMP_temperature;BMP_pressure;BME280_temperature;BME280_humidity;BME280_pressure;Samples;Min_cycle;Max_cycle;Signal;HPM_P1;HPM_P2
2021/01/21 00:00:37;;;;;;;4.97;3.28;;;;;;;;;;6255989;22;20169;-81
2021/01/21 00:03:03;;;;;;;4.10;3.70;;;;;;;;;;6257721;22;20158;-81
2021/01/21 00:05:29;;;;;;;3.55;2.92;;;;;;;;;;6285691;22;20367;-82
2021/01/21 00:07:56;;;;;;;4.03;3.05;;;;;;;;;;6282715;22;20141;-80
2021/01/21 00:10:22;;;;;;;4.60;4.05;;;;;;;;;;6282681;22;20165;-81
2021/01/21 00:12:50;;;;;;;3.58;2.67;;;;;;;;;;6284651;22;20138;-82
2021/01/21 00:15:16;;;;;;;5.28;3.88;;;;;;;;;;6257009;22;20149;-82
2021/01/21 00:17:42;;;;;;;3.73;2.37;;;;;;;;;;6255286;22;20172;-82
2021/01/21 00:20:08;;;;;;;3.50;2.57;;;;;;;;;;6282750;22;20897;-82
2021/01/21 00:22:34;;;;;;;3.37;3.07;;;;;;;;;;6284096;22;20376;-82
2021/01/21 00:25:03;;;;;;;3.50;2.80;;;;;;;;;;6282296;22;20435;-81
2021/01/21 00:27:29;;;;;;;4.55;2.67;;;;;;;;;;6281057;22;20402;-81
2021/01/21 00:29:55;;;;;;;3.08;2.33;;;;;;;;;;6281439;22;20244;-82
2021/01/21 00:32:22;;;;;;;2.87;2.67;;;;;;;;;;6283966;22;20145;-83
2021/01/21 00:34:48;;;;;;;3.47;2.77;;;;;;;;;;6259885;22;20434;-80
2021/01/21 00:37:14;;;;;;;4.50;3.60;;;;;;;;;;6289365;22;20756;-81
2021/01/21 00:39:40;;;;;;;2.97;2.67;;;;;;;;;;6262958;22;20406;-80
2021/01/21 00:42:06;;;;;;;4.60;3.60;;;;;;;;;;6287955;22;20392;-82
2021/01/21 00:44:33;;;;;;;3.90;2.90;;;;;;;;;;6258418;22;20419;-82
2021/01/21 00:47:09;;;;;;;;;;;;;;;;;;;;;
2021/01/21 00:49:35;;;;;;;4.30;2.73;;;;;;;;;;6282362;22;20459;-80
2021/01/21 00:52:01;;;;;;;4.53;3.23;;;;;;;;;;6258512;22;20475;-82
2021/01/21 00:54:28;;;;;;;3.03;2.50;;;;;;;;;;6285363;22;20368;-83
2021/01/21 00:56:55;;;;;;;3.28;3.05;;;;;;;;;;6259816;22;20152;-82
2021/01/21 00:59:21;;;;;;;2.55;2.35;;;;;;;;;;6259773;22;20257;-81
2021/01/21 01:01:47;;;;;;;3.13;2.77;;;;;;;;;;6257277;22;20153;-82
2021/01/21 01:04:14;;;;;;;2.87;2.33;;;;;;;;;;6256164;22;20940;-81
2021/01/21 01:06:49;;;;;;;4.07;2.95;;;;;;;;;;6253842;22;20380;-82
2021/01/21 01:09:33;;;;;;;3.35;3.03;;;;;;;;;;6256511;22;20219;-82
2021/01/21 01:12:00;;;;;;;3.28;2.33;;;;;;;;;;6254422;22;20161;-81
2021/01/21 01:14:29;;;;;;;2.53;2.13;;;;;;;;;;6255656;22;20149;-82
2021/01/21 01:16:55;;;;;;;2.93;2.50;;;;;;;;;;6279391;22;20375;-81
2021/01/21 01:19:22;;;;;;;4.10;2.35;;;;;;;;;;6254247;22;20400;-82
2021/01/21 01:21:48;;;;;;;4.43;2.77;;;;;;;;;;6279912;22;20172;-81
2021/01/21 01:24:14;;;;;;;2.47;2.27;;;;;;;;;;6254769;22;20416;-81
2021/01/21 01:26:45;;;;;;;3.90;2.63;;;;;;;;;;6253736;22;20866;-81
2021/01/21 01:29:16;;;;;;;4.03;2.65;;;;;;;;;;6253836;22;20169;-80
2021/01/21 01:31:44;;;;;;;4.47;2.30;;;;;;;;;;6254574;22;20603;-81
2021/01/21 01:34:13;;;;;;;2.63;1.90;;;;;;;;;;6254757;22;20422;-81
2021/01/21 01:37:00;;;;;;;3.83;2.58;;;;;;;;;;6283227;22;20367;-82
2021/01/21 01:39:29;;;;;;;2.50;2.30;;;;;;;;;;6257950;22;20221;-81
2021/01/21 01:41:58;;;;;;;3.03;2.37;;;;;;;;;;6288010;22;20893;-81
2021/01/21 01:44:24;;;;;;;2.60;2.30;;;;;;;;;;6289023;22;20415;-80
2021/01/21 01:46:51;;;;;;;3.47;2.25;;;;;;;;;;6295339;22;20443;-81
2021/01/21 01:49:21;;;;;;;3.45;2.92;;;;;;;;;;6292922;22;20152;-81
2021/01/21 01:51:52;;;;;;;2.90;2.70;;;;;;;;;;6288566;22;20155;-81
2021/01/21 01:54:18;;;;;;;3.95;2.17;;;;;;;;;;6314674;22;20462;-81
2021/01/21 01:56:52;;;;;;;3.97;2.00;;;;;;;;;;6289876;22;20685;-81
2021/01/21 01:59:27;;;;;;;4.53;3.50;;;;;;;;;;6293733;22;20420;-80
2021/01/21 02:01:58;;;;;;;5.83;2.67;;;;;;;;;;6297808;22;20431;-79
2021/01/21 02:04:31;;;;;;;4.43;3.43;;;;;;;;;;6295548;22;20892;-81
2021/01/21 02:07:20;;;;;;;4.25;2.17;;;;;;;;;;6294588;22;20409;-81
2021/01/21 02:10:07;;;;;;;4.20;3.87;;;;;;;;;;6311021;22;20193;-80
2021/01/21 02:13:05;;;;;;;2.07;1.87;;;;;;;;;;6293412;22;20394;-79
2021/01/21 02:15:47;;;;;;;2.30;2.10;;;;;;;;;;6295650;22;20428;-79
2021/01/21 02:18:17;;;;;;;3.63;2.30;;;;;;;;;;6296224;22;20382;-80
2021/01/21 02:21:02;;;;;;;2.10;1.90;;;;;;;;;;6301281;22;20569;-81
2021/01/21 02:23:54;;;;;;;2.65;2.00;;;;;;;;;;6326337;22;20399;-81
2021/01/21 02:26:27;;;;;;;2.47;2.03;;;;;;;;;;6294907;22;20141;-79
2021/01/21 02:28:57;;;;;;;3.10;2.23;;;;;;;;;;6294615;22;20144;-78
2021/01/21 02:31:27;;;;;;;5.10;2.30;;;;;;;;;;6296875;22;20399;-80
2021/01/21 02:34:06;;;;;;;2.83;2.20;;;;;;;;;;6295633;22;20383;-80
2021/01/21 02:36:37;;;;;;;3.00;1.93;;;;;;;;;;6329505;22;20422;-80
2021/01/21 02:39:10;;;;;;;2.57;2.17;;;;;;;;;;6301139;22;20366;-80
2021/01/21 02:41:37;;;;;;;8.63;7.10;;;;;;;;;;6302160;22;20390;-80
2021/01/21 02:44:06;;;;;;;6.38;3.08;;;;;;;;;;6297865;22;20884;-80
2021/01/21 02:46:33;;;;;;;13.30;3.60;;;;;;;;;;6290536;22;20152;-80
2021/01/21 02:48:59;;;;;;;2.90;2.70;;;;;;;;;;6295845;22;20432;-80
2021/01/21 02:51:35;;;;;;;2.60;2.40;;;;;;;;;;6301339;22;20382;-81
2021/01/21 02:54:07;;;;;;;2.60;2.38;;;;;;;;;;6276540;22;20442;-79
2021/01/21 02:56:37;;;;;;;7.43;2.80;;;;;;;;;;6296346;22;20140;-80
2021/01/21 02:59:05;;;;;;;3.00;2.17;;;;;;;;;;6317745;22;20444;-80
2021/01/21 03:01:35;;;;;;;2.47;2.27;;;;;;;;;;6263589;22;20459;-80
2021/01/21 03:04:03;;;;;;;2.73;2.13;;;;;;;;;;6290317;22;20422;-81
2021/01/21 03:06:30;;;;;;;6.83;2.17;;;;;;;;;;6291362;22;20420;-80
2021/01/21 03:08:59;;;;;;;3.83;2.43;;;;;;;;;;6269929;22;20374;-79
2021/01/21 03:11:25;;;;;;;2.40;2.20;;;;;;;;;;6298850;22;20403;-80
2021/01/21 03:13:59;;;;;;;2.40;2.20;;;;;;;;;;6294109;22;20373;-80
2021/01/21 03:16:27;;;;;;;5.03;2.00;;;;;;;;;;6264507;22;20375;-80
2021/01/21 03:18:56;;;;;;;3.13;2.67;;;;;;;;;;6289043;22;20149;-79
2021/01/21 03:21:24;;;;;;;3.27;2.87;;;;;;;;;;6265862;22;20897;-80
2021/01/21 03:23:54;;;;;;;4.27;2.67;;;;;;;;;;6265004;22;20430;-79
2021/01/21 03:26:29;;;;;;;3.53;2.93;;;;;;;;;;6287789;22;20492;-79
2021/01/21 03:29:06;;;;;;;3.77;2.70;;;;;;;;;;6287582;22;20681;-79
2021/01/21 03:31:33;;;;;;;2.40;2.20;;;;;;;;;;6287997;22;20702;-79
2021/01/21 03:34:00;;;;;;;3.30;2.53;;;;;;;;;;6288217;22;20371;-79
2021/01/21 03:36:27;;;;;;;4.73;3.70;;;;;;;;;;6289614;22;20435;-81
2021/01/21 03:38:56;;;;;;;3.70;2.23;;;;;;;;;;6288883;22;20466;-80
2021/01/21 03:41:52;;;;;;;6.10;2.50;;;;;;;;;;6311575;22;20399;-80
2021/01/21 03:44:29;;;;;;;2.77;2.57;;;;;;;;;;6289045;22;20419;-81
2021/01/21 03:47:00;;;;;;;3.20;2.10;;;;;;;;;;6290101;22;20379;-80
2021/01/21 03:49:49;;;;;;;2.00;1.80;;;;;;;;;;6268697;22;20395;-80
2021/01/21 03:52:19;;;;;;;4.97;2.33;;;;;;;;;;6288671;22;20379;-80
2021/01/21 03:55:06;;;;;;;5.00;3.47;;;;;;;;;;6314137;22;20382;-80
2021/01/21 03:57:32;;;;;;;2.13;1.70;;;;;;;;;;6286511;22;20758;-79
2021/01/21 04:00:15;;;;;;;3.40;2.03;;;;;;;;;;6287921;22;20395;-80
2021/01/21 04:02:41;;;;;;;3.90;2.87;;;;;;;;;;6314786;22;20387;-79
2021/01/21 04:05:33;;;;;;;2.50;2.03;;;;;;;;;;6312817;22;20383;-80
2021/01/21 04:08:00;;;;;;;4.67;2.63;;;;;;;;;;6291801;22;20393;-80
2021/01/21 04:10:28;;;;;;;3.60;2.63;;;;;;;;;;6289437;22;20726;-80
2021/01/21 04:13:20;;;;;;;3.43;1.80;;;;;;;;;;6312555;22;20371;-80
2021/01/21 04:15:48;;;;;;;3.13;1.70;;;;;;;;;;6289269;22;20394;-80
2021/01/21 04:18:18;;;;;;;1.93;1.70;;;;;;;;;;6289039;22;20371;-80
2021/01/21 04:20:58;;;;;;;3.57;2.27;;;;;;;;;;6289573;22;20401;-80
2021/01/21 04:23:24;;;;;;;1.67;1.57;;;;;;;;;;6289036;22;20982;-80
2021/01/21 04:25:50;;;;;;;2.73;1.50;;;;;;;;;;6288831;22;20466;-81
2021/01/21 04:28:17;;;;;;;2.17;1.60;;;;;;;;;;6289156;22;20407;-80
2021/01/21 04:30:43;;;;;;;2.97;1.70;;;;;;;;;;6288875;22;20420;-80
2021/01/21 04:33:09;;;;;;;2.57;1.57;;;;;;;;;;6289456;22;20383;-80
2021/01/21 04:35:36;;;;;;;1.70;1.20;;;;;;;;;;6289289;22;20382;-80
2021/01/21 04:38:02;;;;;;;2.17;1.40;;;;;;;;;;6289767;22;20389;-80
2021/01/21 04:40:39;;;;;;;1.80;1.47;;;;;;;;;;6289147;22;20418;-81
2021/01/21 04:43:44;;;;;;;6.20;2.00;;;;;;;;;;6222213;23;20425;-80
2021/01/21 04:46:18;;;;;;;1.90;1.43;;;;;;;;;;6196031;23;20365;-80
2021/01/21 04:48:50;;;;;;;4.33;1.37;;;;;;;;;;6238123;22;20371;-81
2021/01/21 04:51:18;;;;;;;2.93;1.40;;;;;;;;;;6290024;22;20422;-81
2021/01/21 04:53:57;;;;;;;3.77;1.80;;;;;;;;;;6270523;22;20918;-81
2021/01/21 04:56:39;;;;;;;2.87;1.17;;;;;;;;;;6291496;22;20374;-80
2021/01/21 04:59:36;;;;;;;3.23;1.70;;;;;;;;;;6267301;22;20402;-80
2021/01/21 05:02:03;;;;;;;3.17;1.67;;;;;;;;;;6287470;22;20386;-81
2021/01/21 05:04:30;;;;;;;3.97;1.87;;;;;;;;;;6289054;22;20560;-81
2021/01/21 05:07:17;;;;;;;2.90;1.70;;;;;;;;;;6287898;22;20386;-80
2021/01/21 05:09:43;;;;;;;3.70;2.07;;;;;;;;;;6288906;22;20398;-81
2021/01/21 05:12:17;;;;;;;2.27;2.00;;;;;;;;;;6289339;22;20367;-81
2021/01/21 05:15:03;;;;;;;5.93;3.03;;;;;;;;;;6317486;22;20421;-81
2021/01/21 05:17:36;;;;;;;2.83;2.63;;;;;;;;;;6295682;22;20363;-80
2021/01/21 05:20:28;;;;;;;2.92;2.72;;;;;;;;;;6316701;22;20426;-80
2021/01/21 05:23:24;;;;;;;3.38;2.92;;;;;;;;;;6323623;22;20188;-80
2021/01/21 05:26:08;;;;;;;3.80;2.50;;;;;;;;;;6288823;22;20144;-80
2021/01/21 05:28:48;;;;;;;8.03;3.93;;;;;;;;;;6286872;22;20371;-81
2021/01/21 05:31:22;;;;;;;4.03;2.77;;;;;;;;;;6287336;22;20504;-79
2021/01/21 05:33:49;;;;;;;4.50;3.37;;;;;;;;;;6286905;22;20390;-81
2021/01/21 05:36:21;;;;;;;5.15;2.95;;;;;;;;;;6289381;22;20370;-80
2021/01/21 05:39:16;;;;;;;6.07;4.10;;;;;;;;;;6289118;22;20331;-81
2021/01/21 05:42:18;;;;;;;4.65;4.35;;;;;;;;;;6315894;22;20391;-80
2021/01/21 05:45:05;;;;;;;5.20;3.33;;;;;;;;;;6314221;22;20241;-80
2021/01/21 05:47:54;;;;;;;3.97;3.47;;;;;;;;;;6265483;22;20450;-80
2021/01/21 05:50:21;;;;;;;7.13;3.60;;;;;;;;;;6316011;22;20390;-81
2021/01/21 05:52:48;;;;;;;4.25;3.85;;;;;;;;;;6288558;22;20371;-81
2021/01/21 05:55:18;;;;;;;3.57;2.83;;;;;;;;;;6264140;22;20159;-80
2021/01/21 05:57:53;;;;;;;3.90;3.13;;;;;;;;;;6288388;22;20371;-81
2021/01/21 06:00:20;;;;;;;8.90;3.60;;;;;;;;;;6288319;22;20405;-80
2021/01/21 06:02:54;;;;;;;3.70;3.07;;;;;;;;;;6288790;22;20375;-81
2021/01/21 06:05:49;;;;;;;4.15;3.10;;;;;;;;;;6248013;22;20763;-81
2021/01/21 06:08:20;;;;;;;4.23;3.37;;;;;;;;;;6316666;22;20609;-81
2021/01/21 06:10:46;;;;;;;3.67;3.37;;;;;;;;;;6289337;22;20432;-79
2021/01/21 06:13:14;;;;;;;7.40;3.57;;;;;;;;;;6287303;22;20374;-80
2021/01/21 06:15:41;;;;;;;5.27;3.20;;;;;;;;;;6314576;22;20378;-79
2021/01/21 06:18:07;;;;;;;4.40;3.87;;;;;;;;;;6315395;22;20371;-80
2021/01/21 06:20:56;;;;;;;5.50;4.30;;;;;;;;;;6277906;22;20407;-80
2021/01/21 06:23:50;;;;;;;4.20;3.80;;;;;;;;;;6288604;22;20429;-80
2021/01/21 06:26:27;;;;;;;3.73;3.43;;;;;;;;;;6315735;22;20359;-81
2021/01/21 06:28:59;;;;;;;3.87;3.53;;;;;;;;;;6289015;22;20685;-81
2021/01/21 06:31:26;;;;;;;7.50;2.83;;;;;;;;;;6287815;22;20383;-80
2021/01/21 06:33:53;;;;;;;4.80;4.07;;;;;;;;;;6288731;22;20375;-80
2021/01/21 06:36:21;;;;;;;5.13;3.93;;;;;;;;;;6287966;22;20462;-81
2021/01/21 06:38:49;;;;;;;3.90;3.10;;;;;;;;;;6318767;22;20713;-80
2021/01/21 06:41:17;;;;;;;5.80;4.07;;;;;;;;;;6266717;22;20415;-81
2021/01/21 06:43:44;;;;;;;5.60;2.97;;;;;;;;;;6320571;22;20411;-81
2021/01/21 06:46:12;;;;;;;6.70;3.50;;;;;;;;;;6295758;22;20852;-81
2021/01/21 06:48:39;;;;;;;4.00;3.60;;;;;;;;;;6321556;22;20363;-81
2021/01/21 06:51:09;;;;;;;3.40;2.93;;;;;;;;;;6323077;22;20420;-81
2021/01/21 06:53:35;;;;;;;3.60;3.30;;;;;;;;;;6293992;22;20422;-81
2021/01/21 06:56:02;;;;;;;6.50;3.00;;;;;;;;;;6318001;22;20458;-80
2021/01/21 06:58:47;;;;;;;4.90;2.57;;;;;;;;;;6319206;22;20799;-81
2021/01/21 07:01:37;;;;;;;3.27;2.90;;;;;;;;;;6291479;22;20394;-81
2021/01/21 07:04:17;;;;;;;3.50;3.20;;;;;;;;;;6276951;22;20423;-80
2021/01/21 07:06:50;;;;;;;3.53;3.23;;;;;;;;;;6299308;22;20785;-80
2021/01/21 07:09:26;;;;;;;3.37;2.93;;;;;;;;;;6299016;22;20370;-81
2021/01/21 07:11:56;;;;;;;3.20;2.70;;;;;;;;;;6296980;22;20382;-80
2021/01/21 07:14:23;;;;;;;7.70;4.67;;;;;;;;;;6298966;22;20367;-81
2021/01/21 07:16:50;;;;;;;3.60;2.50;;;;;;;;;;6325038;22;20387;-81
2021/01/21 07:19:16;;;;;;;6.27;2.10;;;;;;;;;;6296042;22;20432;-80
2021/01/21 07:21:52;;;;;;;6.03;2.60;;;;;;;;;;6299141;22;20382;-83
2021/01/21 07:24:28;;;;;;;6.43;3.00;;;;;;;;;;6304273;22;20383;-84
2021/01/21 07:27:08;;;;;;;;;;;;;;;;;;;;;
2021/01/21 07:29:50;;;;;;;;;;;;;;;;;;;;;
2021/01/21 07:32:27;;;;;;;4.43;2.50;;;;;;;;;;6326504;22;20371;-82
2021/01/21 07:34:53;;;;;;;5.73;2.73;;;;;;;;;;6276878;22;20381;-85
2021/01/21 07:37:22;;;;;;;2.00;1.80;;;;;;;;;;6318550;22;20363;-85
2021/01/21 07:42:37;;;;;;;26.03;17.63;;;;;;;;;;6317016;22;20421;-81
2021/01/21 07:45:06;;;;;;;3.93;2.60;;;;;;;;;;6316760;22;20510;-84
2021/01/21 07:47:36;;;;;;;2.83;2.40;;;;;;;;;;6316913;22;20417;-83
2021/01/21 07:50:25;;;;;;;3.00;2.70;;;;;;;;;;6291021;22;20363;-82
2021/01/21 07:52:53;;;;;;;5.50;4.10;;;;;;;;;;6265229;22;20367;-82
2021/01/21 07:55:27;;;;;;;2.93;2.10;;;;;;;;;;6291593;22;20363;-81
2021/01/21 07:58:16;;;;;;;3.33;2.50;;;;;;;;;;6288984;22;20687;-85
2021/01/21 08:00:43;;;;;;;4.10;3.00;;;;;;;;;;6269318;22;20395;-83
2021/01/21 08:03:13;;;;;;;5.13;3.40;;;;;;;;;;6287433;22;20869;-82
2021/01/21 08:05:42;;;;;;;4.00;2.87;;;;;;;;;;6287841;22;20674;-81
2021/01/21 08:08:11;;;;;;;6.00;2.60;;;;;;;;;;6286566;22;20386;-79
2021/01/21 08:10:38;;;;;;;4.07;3.50;;;;;;;;;;6287540;22;20770;-80
2021/01/21 08:13:17;;;;;;;3.73;2.70;;;;;;;;;;6315686;22;20840;-78
2021/01/21 08:15:44;;;;;;;4.57;2.93;;;;;;;;;;6325605;22;20472;-83
2021/01/21 08:18:15;;;;;;;4.23;2.27;;;;;;;;;;6287762;22;20371;-82
2021/01/21 08:20:42;;;;;;;4.73;2.33;;;;;;;;;;6315345;22;20391;-81
2021/01/21 08:23:12;;;;;;;2.80;2.60;;;;;;;;;;6314446;22;20454;-80
2021/01/21 08:25:39;;;;;;;3.60;2.33;;;;;;;;;;6287743;22;20406;-82
2021/01/21 08:28:05;;;;;;;4.20;3.30;;;;;;;;;;6314215;22;20369;-82
2021/01/21 08:30:32;;;;;;;7.27;4.97;;;;;;;;;;6259694;22;20406;-82
2021/01/21 08:33:00;;;;;;;5.73;3.00;;;;;;;;;;6285817;22;20380;-82
2021/01/21 08:36:01;;;;;;;;;;;;;;;;;;;;;
2021/01/21 08:38:45;;;;;;;2.10;1.90;;;;;;;;;;6315216;22;20493;-85
2021/01/21 08:41:13;;;;;;;3.87;2.40;;;;;;;;;;6287789;22;20421;-81
2021/01/21 08:43:41;;;;;;;3.20;2.90;;;;;;;;;;6315000;22;20391;-81
2021/01/21 08:46:13;;;;;;;3.93;2.60;;;;;;;;;;6314932;22;20398;-84
2021/01/21 08:48:39;;;;;;;5.63;2.87;;;;;;;;;;6289593;22;20369;-82
2021/01/21 08:51:23;;;;;;;5.60;3.53;;;;;;;;;;6318036;22;20406;-83
2021/01/21 08:53:49;;;;;;;4.30;3.20;;;;;;;;;;6287876;22;20381;-81
2021/01/21 08:56:15;;;;;;;5.73;3.70;;;;;;;;;;6288037;22;20870;-82
2021/01/21 08:58:42;;;;;;;3.20;2.50;;;;;;;;;;6314842;22;20371;-83
2021/01/21 09:01:15;;;;;;;4.50;2.90;;;;;;;;;;6287803;22;20411;-82
2021/01/21 09:03:47;;;;;;;4.50;2.70;;;;;;;;;;6314762;22;20421;-83
2021/01/21 09:06:14;;;;;;;4.10;3.13;;;;;;;;;;6263191;22;20380;-83
2021/01/21 09:08:47;;;;;;;2.80;2.43;;;;;;;;;;6288278;22;20461;-84
2021/01/21 09:11:33;;;;;;;4.90;3.40;;;;;;;;;;6315749;22;20461;-82
2021/01/21 09:14:01;;;;;;;3.93;3.50;;;;;;;;;;6314449;22;20717;-83
2021/01/21 09:16:40;;;;;;;5.13;4.50;;;;;;;;;;6288802;22;20370;-82
2021/01/21 09:19:07;;;;;;;4.67;3.17;;;;;;;;;;6287348;22;20426;-82
2021/01/21 09:21:33;;;;;;;5.40;4.60;;;;;;;;;;6288398;22;20445;-83
2021/01/21 09:24:06;;;;;;;5.43;3.03;;;;;;;;;;6288964;22;20494;-83
2021/01/21 09:26:33;;;;;;;3.10;2.80;;;;;;;;;;6291473;22;20434;-83
2021/01/21 09:28:59;;;;;;;3.10;2.70;;;;;;;;;;6288750;22;20455;-82
2021/01/21 09:31:32;;;;;;;6.20;3.40;;;;;;;;;;6262216;22;20473;-82
2021/01/21 09:33:59;;;;;;;2.90;2.20;;;;;;;;;;6320869;22;20381;-85
2021/01/21 09:36:29;;;;;;;7.30;3.40;;;;;;;;;;6291846;22;20375;-85
2021/01/21 09:38:56;;;;;;;4.47;2.67;;;;;;;;;;6290278;22;20394;-85
2021/01/21 09:41:26;;;;;;;6.07;3.40;;;;;;;;;;6291096;22;20503;-86
2021/01/21 09:43:52;;;;;;;5.37;3.53;;;;;;;;;;6265492;22;20419;-86
2021/01/21 09:46:19;;;;;;;3.30;3.00;;;;;;;;;;6296175;22;20443;-85
2021/01/21 09:48:55;;;;;;;5.03;2.97;;;;;;;;;;6270935;22;20398;-84
2021/01/21 09:51:36;;;;;;;6.13;3.63;;;;;;;;;;6267823;22;20394;-84
2021/01/21 09:54:05;;;;;;;2.93;2.73;;;;;;;;;;6321196;22;20363;-86
2021/01/21 09:56:35;;;;;;;3.97;3.57;;;;;;;;;;6294010;22;20362;-86
2021/01/21 09:59:01;;;;;;;3.73;3.43;;;;;;;;;;6295115;22;20368;-86
2021/01/21 10:01:28;;;;;;;4.63;2.83;;;;;;;;;;6325891;22;20379;-87
2021/01/21 10:03:54;;;;;;;4.03;3.63;;;;;;;;;;6319059;22;20482;-85
2021/01/21 10:06:21;;;;;;;3.20;2.50;;;;;;;;;;6291750;22;20373;-86
2021/01/21 10:08:47;;;;;;;5.00;2.20;;;;;;;;;;6292274;22;20387;-86
2021/01/21 10:11:13;;;;;;;4.47;2.70;;;;;;;;;;6291242;22;20849;-85
2021/01/21 10:13:40;;;;;;;4.47;3.07;;;;;;;;;;6291643;22;20367;-85
2021/01/21 10:16:07;;;;;;;3.43;2.63;;;;;;;;;;6292396;22;20401;-87
2021/01/21 10:18:33;;;;;;;3.07;2.63;;;;;;;;;;6267081;22;20379;-86
2021/01/21 10:21:05;;;;;;;3.50;2.33;;;;;;;;;;6269620;22;20466;-87
2021/01/21 10:23:42;;;;;;;;;;;;;;;;;;;;;
2021/01/21 10:26:09;;;;;;;4.13;2.40;;;;;;;;;;6292093;22;20375;-86
2021/01/21 10:28:35;;;;;;;6.23;2.00;;;;;;;;;;6293701;22;20347;-87
2021/01/21 10:31:02;;;;;;;2.57;2.37;;;;;;;;;;6293904;22;20419;-87
2021/01/21 10:33:28;;;;;;;2.87;2.43;;;;;;;;;;6294981;22;20382;-85
2021/01/21 10:35:55;;;;;;;2.27;2.00;;;;;;;;;;6293599;22;20371;-86
2021/01/21 10:38:30;;;;;;;3.43;2.27;;;;;;;;;;6296479;22;20374;-85
2021/01/21 10:40:59;;;;;;;11.23;3.50;;;;;;;;;;6271759;22;20442;-86
2021/01/21 10:43:26;;;;;;;5.20;2.43;;;;;;;;;;6271442;22;20390;-84
2021/01/21 10:45:55;;;;;;;3.20;2.90;;;;;;;;;;6322449;22;20370;-84
2021/01/21 10:48:30;;;;;;;4.30;2.83;;;;;;;;;;6297038;22;20403;-85
2021/01/21 10:50:57;;;;;;;3.30;2.63;;;;;;;;;;6266815;22;20429;-84
2021/01/21 10:53:26;;;;;;;3.93;2.90;;;;;;;;;;6295240;22;20374;-86
2021/01/21 10:55:55;;;;;;;5.90;3.23;;;;;;;;;;6320996;22;20370;-86
2021/01/21 10:58:25;;;;;;;4.07;2.97;;;;;;;;;;6269887;22;20769;-86
2021/01/21 11:00:51;;;;;;;3.10;2.80;;;;;;;;;;6323541;22;20387;-85
2021/01/21 11:03:18;;;;;;;3.03;2.73;;;;;;;;;;6325724;22;20446;-86
2021/01/21 11:05:44;;;;;;;5.50;4.33;;;;;;;;;;6275334;22;20385;-85
2021/01/21 11:08:12;;;;;;;5.93;4.20;;;;;;;;;;6301819;22;20390;-85
2021/01/21 11:10:39;;;;;;;5.17;3.90;;;;;;;;;;6330360;22;20390;-87
2021/01/21 11:13:05;;;;;;;7.53;6.60;;;;;;;;;;6330907;22;20359;-85
2021/01/21 11:15:32;;;;;;;9.07;5.77;;;;;;;;;;6301608;22;20432;-85
2021/01/21 11:17:58;;;;;;;7.53;6.93;;;;;;;;;;6302193;22;20398;-86
2021/01/21 11:20:25;;;;;;;11.83;6.90;;;;;;;;;;6330685;22;20421;-87
2021/01/21 11:22:52;;;;;;;5.17;4.07;;;;;;;;;;6303825;22;20363;-84
2021/01/21 11:25:18;;;;;;;3.57;2.53;;;;;;;;;;6301856;22;20760;-85
2021/01/21 11:27:45;;;;;;;3.67;3.20;;;;;;;;;;6299960;22;20382;-85
2021/01/21 11:30:12;;;;;;;5.50;3.50;;;;;;;;;;6295528;22;20406;-84
2021/01/21 11:32:39;;;;;;;3.47;2.70;;;;;;;;;;6268892;22;20446;-86
2021/01/21 11:35:06;;;;;;;3.30;3.00;;;;;;;;;;6322652;22;20363;-85
2021/01/21 11:37:33;;;;;;;4.83;2.90;;;;;;;;;;6296334;22;20450;-85
2021/01/21 11:39:59;;;;;;;5.30;2.90;;;;;;;;;;6297583;22;20383;-86
2021/01/21 11:42:26;;;;;;;4.00;3.43;;;;;;;;;;6297430;22;20402;-86
2021/01/21 11:44:53;;;;;;;2.57;2.37;;;;;;;;;;6297628;22;20421;-85
2021/01/21 11:47:19;;;;;;;2.57;2.37;;;;;;;;;;6300257;22;20377;-84
2021/01/21 11:49:45;;;;;;;3.63;3.03;;;;;;;;;;6279080;22;20443;-86
2021/01/21 11:52:11;;;;;;;7.17;2.90;;;;;;;;;;6327559;22;20419;-86
2021/01/21 11:54:38;;;;;;;3.43;1.80;;;;;;;;;;6324641;22;20784;-86
2021/01/21 11:57:04;;;;;;;2.37;1.60;;;;;;;;;;6325159;22;20462;-85
2021/01/21 11:59:30;;;;;;;5.67;3.37;;;;;;;;;;6304640;22;20401;-83
2021/01/21 12:02:07;;;;;;;2.50;2.20;;;;;;;;;;6307268;22;20405;-85
2021/01/21 12:04:36;;;;;;;2.87;2.00;;;;;;;;;;6305649;22;20406;-86
2021/01/21 12:07:03;;;;;;;4.07;3.03;;;;;;;;;;6327039;22;20364;-85
2021/01/21 12:09:29;;;;;;;3.20;1.83;;;;;;;;;;6304276;22;20427;-85
2021/01/21 12:11:58;;;;;;;2.20;2.00;;;;;;;;;;6302909;22;20455;-87
2021/01/21 12:14:30;;;;;;;2.50;1.40;;;;;;;;;;6304279;22;20401;-87
2021/01/21 12:16:56;;;;;;;1.80;1.50;;;;;;;;;;6329576;22;20375;-85
2021/01/21 12:19:29;;;;;;;1.30;1.20;;;;;;;;;;6302448;22;20383;-87
2021/01/21 12:21:55;;;;;;;3.23;2.17;;;;;;;;;;6330256;22;20363;-89
2021/01/21 12:24:22;;;;;;;1.80;1.70;;;;;;;;;;6294615;22;20493;-86
2021/01/21 12:26:48;;;;;;;5.70;2.53;;;;;;;;;;6297250;22;20423;-85
2021/01/21 12:29:15;;;;;;;2.97;1.40;;;;;;;;;;6296117;22;20370;-86
2021/01/21 12:31:41;;;;;;;3.43;2.80;;;;;;;;;;6326602;22;20408;-86
2021/01/21 12:34:08;;;;;;;1.47;1.33;;;;;;;;;;6295407;22;20792;-85
2021/01/21 12:36:34;;;;;;;3.90;2.07;;;;;;;;;;6323959;22;20364;-85
2021/01/21 12:39:01;;;;;;;3.03;1.40;;;;;;;;;;6304965;22;20364;-84
2021/01/21 12:41:28;;;;;;;2.70;1.90;;;;;;;;;;6295795;22;20412;-86
2021/01/21 12:43:54;;;;;;;3.80;3.50;;;;;;;;;;6320457;22;20410;-87
2021/01/21 12:46:33;;;;;;;;;;;;;;;;;;;;;
2021/01/21 12:49:00;;;;;;;2.57;2.37;;;;;;;;;;6293878;22;20382;-88
2021/01/21 12:51:26;;;;;;;4.97;2.77;;;;;;;;;;6293458;22;20399;-83
2021/01/21 12:53:53;;;;;;;3.63;2.27;;;;;;;;;;6327001;22;20380;-84
2021/01/21 12:56:19;;;;;;;3.57;1.40;;;;;;;;;;6306926;22;20371;-87
2021/01/21 12:58:46;;;;;;;1.83;1.40;;;;;;;;;;6302067;22;20379;-86
2021/01/21 13:04:20;;;;;;;3.40;3.10;;;;;;;;;;6283524;22;20460;-85
2021/01/21 13:06:46;;;;;;;3.83;1.50;;;;;;;;;;6324438;22;20454;-85
2021/01/21 13:09:16;;;;;;;1.87;1.73;;;;;;;;;;6295073;22;20372;-84
2021/01/21 13:11:50;;;;;;;6.20;2.90;;;;;;;;;;6321768;22;20390;-84
2021/01/21 13:14:17;;;;;;;3.60;1.90;;;;;;;;;;6324890;22;20359;-85
2021/01/21 13:16:43;;;;;;;2.67;1.20;;;;;;;;;;6276915;22;20456;-85
2021/01/21 13:19:09;;;;;;;6.77;4.90;;;;;;;;;;6328125;22;20395;-85
2021/01/21 13:21:41;;;;;;;2.10;1.73;;;;;;;;;;6301207;22;20383;-84
2021/01/21 13:24:08;;;;;;;2.97;1.17;;;;;;;;;;6298917;22;20525;-84
2021/01/21 13:26:40;;;;;;;1.80;1.57;;;;;;;;;;6296780;22;20845;-86
2021/01/21 13:29:07;;;;;;;5.07;1.73;;;;;;;;;;6298807;22;20375;-85
2021/01/21 13:31:33;;;;;;;2.27;2.03;;;;;;;;;;6324419;22;20477;-86
2021/01/21 13:34:10;;;;;;;2.83;1.70;;;;;;;;;;6298287;22;20386;-85
2021/01/21 13:36:37;;;;;;;2.60;2.00;;;;;;;;;;6326126;22;20367;-87
2021/01/21 13:39:03;;;;;;;3.90;1.50;;;;;;;;;;6327214;22;20372;-87
2021/01/21 13:41:30;;;;;;;2.00;1.40;;;;;;;;;;6321825;22;20443;-82
2021/01/21 13:43:56;;;;;;;3.10;1.40;;;;;;;;;;6321332;22;20410;-83
2021/01/21 13:46:26;;;;;;;4.20;3.67;;;;;;;;;;6299587;22;20394;-83
2021/01/21 13:48:52;;;;;;;2.60;2.40;;;;;;;;;;6275564;22;20380;-83
2021/01/21 13:51:21;;;;;;;1.53;1.33;;;;;;;;;;6270051;22;20403;-83
2021/01/21 13:53:48;;;;;;;2.23;1.70;;;;;;;;;;6263756;22;20467;-83
2021/01/21 13:56:14;;;;;;;6.83;4.17;;;;;;;;;;6265034;22;20380;-83
2021/01/21 13:58:41;;;;;;;3.00;2.70;;;;;;;;;;6290917;22;20374;-83
2021/01/21 14:01:07;;;;;;;2.73;1.80;;;;;;;;;;6293551;22;20410;-82
2021/01/21 14:03:33;;;;;;;3.23;3.03;;;;;;;;;;6294841;22;20390;-81
2021/01/21 14:06:00;;;;;;;6.40;1.93;;;;;;;;;;6295385;22;20371;-84
2021/01/21 14:08:27;;;;;;;3.37;2.10;;;;;;;;;;6268721;22;20380;-84
2021/01/21 14:10:53;;;;;;;3.50;1.60;;;;;;;;;;6267076;22;20399;-84
2021/01/21 14:13:21;;;;;;;6.00;1.83;;;;;;;;;;6263335;22;20387;-83
2021/01/21 14:15:47;;;;;;;4.80;2.10;;;;;;;;;;6263232;22;20657;-86
2021/01/21 14:18:24;;;;;;;1.70;1.60;;;;;;;;;;6286963;22;20371;-84
2021/01/21 14:20:51;;;;;;;3.50;1.90;;;;;;;;;;6262047;22;20419;-83
2021/01/21 14:23:20;;;;;;;7.43;3.23;;;;;;;;;;6294198;22;20375;-85
2021/01/21 14:25:47;;;;;;;3.30;1.80;;;;;;;;;;6303682;22;20421;-84
2021/01/21 14:28:14;;;;;;;10.50;4.30;;;;;;;;;;6304379;22;20374;-85
2021/01/21 14:30:40;;;;;;;4.07;2.93;;;;;;;;;;6303618;22;20387;-86
2021/01/21 14:33:07;;;;;;;2.00;1.80;;;;;;;;;;6264847;22;20383;-84
2021/01/21 14:35:34;;;;;;;3.77;1.77;;;;;;;;;;6289030;22;20371;-83
2021/01/21 14:38:01;;;;;;;3.90;3.60;;;;;;;;;;6261000;22;20383;-83
2021/01/21 14:40:28;;;;;;;6.03;3.00;;;;;;;;;;6285898;22;20701;-82
2021/01/21 14:42:54;;;;;;;2.97;2.40;;;;;;;;;;6288124;22;20383;-83
2021/01/21 14:45:21;;;;;;;8.80;4.17;;;;;;;;;;6262331;22;20419;-83
2021/01/21 14:47:47;;;;;;;3.20;2.90;;;;;;;;;;6263360;22;20386;-84
2021/01/21 14:50:13;;;;;;;3.13;2.00;;;;;;;;;;6290741;22;20356;-85
2021/01/21 14:52:40;;;;;;;2.90;2.27;;;;;;;;;;6263829;22;20372;-84
2021/01/21 14:55:07;;;;;;;3.20;2.90;;;;;;;;;;6260546;22;20450;-82
2021/01/21 14:57:36;;;;;;;5.30;3.60;;;;;;;;;;6288017;22;20425;-85
2021/01/21 15:00:04;;;;;;;4.00;2.50;;;;;;;;;;6286454;22;20848;-83
2021/01/21 15:02:33;;;;;;;4.40;1.47;;;;;;;;;;6260817;22;20427;-84
2021/01/21 15:05:02;;;;;;;2.97;1.87;;;;;;;;;;6262681;22;20420;-83
2021/01/21 15:07:28;;;;;;;1.63;1.30;;;;;;;;;;6289888;22;20413;-84
2021/01/21 15:09:55;;;;;;;2.80;1.93;;;;;;;;;;6261697;22;20383;-82
2021/01/21 15:12:32;;;;;;;5.70;1.90;;;;;;;;;;6289167;22;20391;-84
2021/01/21 15:15:01;;;;;;;2.30;1.30;;;;;;;;;;6261267;22;20398;-81